createdAt,value
2017-05-08T00:00:19.553Z,27.30
2017-05-08T00:02:50.585Z,27.70
2017-05-08T00:05:21.151Z,27.30
2017-05-08T00:07:51.914Z,26.90
2017-05-08T00:10:22.841Z,27.30
2017-05-08T00:12:53.652Z,26.20
2017-05-08T00:15:24.555Z,27.30
2017-05-08T00:17:55.320Z,26.50
2017-05-08T00:20:27.408Z,28.60
2017-05-08T00:22:58.224Z,28.50
2017-05-08T00:25:28.874Z,26.70
2017-05-08T00:27:59.512Z,27.70
2017-05-08T00:30:30.335Z,26.60
2017-05-08T00:33:01.237Z,26.50
2017-05-08T00:35:32.242Z,25.30
2017-05-08T00:38:03.073Z,24.80
2017-05-08T00:40:33.653Z,25.70
2017-05-08T00:43:04.654Z,26.50
2017-05-08T00:45:36.112Z,25.40
2017-05-08T00:48:06.920Z,26.80
2017-05-08T00:50:37.671Z,25.60
2017-05-08T00:53:08.297Z,26.70
2017-05-08T00:55:39.063Z,28.30
2017-05-08T00:58:09.774Z,26.20
2017-05-08T01:00:40.278Z,26.40
2017-05-08T01:03:11.711Z,26.90
2017-05-08T01:05:42.375Z,26.90
2017-05-08T01:08:13.654Z,26.60
2017-05-08T01:10:44.701Z,26.60
2017-05-08T01:13:15.664Z,26.50
2017-05-08T01:15:46.435Z,27.40
2017-05-08T01:18:17.271Z,26.00
2017-05-08T01:20:48.752Z,26.50
2017-05-08T01:23:19.695Z,27.20
2017-05-08T01:25:50.175Z,26.70
2017-05-08T01:28:22.023Z,26.80
2017-05-08T01:30:52.992Z,25.80
2017-05-08T01:33:23.974Z,26.70
2017-05-08T01:35:54.443Z,27.30
2017-05-08T01:38:25.181Z,26.70
2017-05-08T01:40:55.699Z,26.30
2017-05-08T01:43:26.661Z,25.00
2017-05-08T01:45:57.556Z,25.60
2017-05-08T01:48:28.246Z,25.00
2017-05-08T01:50:59.092Z,26.90
2017-05-08T01:53:29.923Z,25.20
2017-05-08T01:56:00.798Z,27.10
2017-05-08T01:58:31.660Z,25.20
2017-05-08T02:01:02.995Z,26.00
2017-05-08T02:03:33.695Z,25.60
2017-05-08T02:06:04.167Z,25.50
2017-05-08T02:08:36.036Z,25.50
2017-05-08T02:11:06.694Z,26.70
2017-05-08T02:13:37.556Z,24.60
2017-05-08T02:16:08.185Z,26.00
2017-05-08T02:18:39.450Z,27.10
2017-05-08T02:21:10.806Z,25.90
2017-05-08T02:23:41.480Z,26.10
2017-05-08T02:26:12.090Z,27.10
2017-05-08T02:28:43.401Z,26.30
2017-05-08T02:31:14.502Z,26.70
2017-05-08T02:33:45.323Z,27.90
2017-05-08T02:36:16.280Z,27.90
2017-05-08T02:38:47.114Z,27.30
2017-05-08T02:41:17.677Z,27.20
2017-05-08T02:43:48.597Z,27.50
2017-05-08T02:46:19.573Z,28.80
2017-05-08T02:48:50.655Z,28.10
2017-05-08T02:51:21.602Z,27.40
2017-05-08T02:53:52.372Z,28.20
2017-05-08T02:56:23.233Z,28.70
2017-05-08T02:58:54.342Z,28.80
2017-05-08T03:01:25.399Z,29.20
2017-05-08T03:03:56.166Z,29.50
2017-05-08T03:06:26.840Z,30.10
2017-05-08T03:08:57.996Z,30.40
2017-05-08T03:11:28.973Z,32.60
2017-05-08T03:13:59.809Z,31.50
2017-05-08T03:16:30.258Z,32.90
2017-05-08T03:19:01.241Z,33.80
2017-05-08T03:21:32.604Z,34.10
2017-05-08T03:24:03.483Z,35.80
2017-05-08T03:26:34.994Z,36.90
2017-05-08T03:29:06.054Z,39.20
2017-05-08T03:31:37.254Z,40.00
2017-05-08T03:34:07.885Z,41.70
2017-05-08T03:36:38.723Z,42.30
2017-05-08T03:39:09.784Z,43.10
2017-05-08T03:41:40.570Z,44.20
2017-05-08T03:44:12.332Z,45.60
2017-05-08T03:46:43.054Z,45.20
2017-05-08T03:49:13.846Z,46.20
2017-05-08T03:51:44.415Z,46.40
2017-05-08T03:54:15.277Z,46.10
2017-05-08T03:56:46.180Z,46.50
2017-05-08T03:59:17.695Z,47.70
2017-05-08T04:01:48.191Z,47.80
2017-05-08T04:04:19.549Z,48.60
2017-05-08T04:06:50.429Z,49.10
2017-05-08T04:09:21.220Z,50.10
2017-05-08T04:11:52.043Z,51.40
2017-05-08T04:14:22.993Z,50.70
2017-05-08T04:16:53.892Z,51.30
2017-05-08T04:19:24.733Z,51.10
2017-05-08T04:21:56.138Z,52.50
2017-05-08T04:24:26.940Z,53.80
2017-05-08T04:26:58.460Z,53.50
2017-05-08T04:29:29.286Z,54.30
2017-05-08T04:32:00.112Z,54.10
2017-05-08T04:34:31.069Z,54.70
2017-05-08T04:37:01.785Z,55.50
2017-05-08T04:39:32.482Z,56.30
2017-05-08T04:42:03.215Z,56.30
2017-05-08T04:44:33.935Z,57.20
2017-05-08T04:47:05.104Z,57.10
2017-05-08T04:49:35.750Z,59.40
2017-05-08T04:52:06.425Z,58.70
2017-05-08T04:54:37.126Z,58.80
2017-05-08T04:57:07.630Z,58.50
2017-05-08T04:59:38.797Z,61.30
2017-05-08T05:02:09.761Z,60.90
2017-05-08T05:04:40.354Z,61.30
2017-05-08T05:07:10.998Z,61.40
2017-05-08T05:09:42.015Z,61.90
2017-05-08T05:12:12.774Z,62.50
2017-05-08T05:14:43.672Z,62.20
2017-05-08T05:17:14.560Z,62.50
2017-05-08T05:19:45.116Z,63.70
2017-05-08T05:22:16.905Z,63.80
2017-05-08T05:24:47.920Z,64.40
2017-05-08T05:27:18.857Z,64.60
2017-05-08T05:29:49.686Z,65.20
2017-05-08T05:32:20.631Z,66.90
2017-05-08T05:34:51.473Z,66.70
2017-05-08T05:37:22.258Z,68.10
2017-05-08T05:39:53.374Z,67.30
2017-05-08T05:42:24.404Z,68.80
2017-05-08T05:44:55.441Z,68.20
2017-05-08T05:47:26.201Z,68.70
2017-05-08T05:49:57.171Z,68.40
2017-05-08T05:52:27.825Z,69.20
2017-05-08T05:54:58.353Z,69.70
2017-05-08T05:57:29.024Z,69.00
2017-05-08T05:59:59.771Z,69.40
2017-05-08T06:02:30.647Z,69.00
2017-05-08T06:05:01.743Z,69.40
2017-05-08T06:07:32.733Z,68.70
2017-05-08T06:10:03.822Z,68.90
2017-05-08T06:12:34.586Z,69.00
2017-05-08T06:15:05.217Z,70.10
2017-05-08T06:17:36.111Z,69.50
2017-05-08T06:20:06.996Z,70.60
2017-05-08T06:22:38.607Z,70.20
2017-05-08T06:25:09.569Z,71.20
2017-05-08T06:27:40.676Z,71.10
2017-05-08T06:30:11.280Z,70.80
2017-05-08T06:32:41.687Z,70.90
2017-05-08T06:35:12.328Z,71.30
2017-05-08T06:37:42.947Z,70.90
2017-05-08T06:40:13.935Z,71.50
2017-05-08T06:42:44.728Z,71.40
2017-05-08T06:45:15.618Z,71.20
2017-05-08T06:47:47.211Z,71.80
2017-05-08T06:50:17.675Z,72.80
2017-05-08T06:52:48.416Z,72.50
2017-05-08T06:55:19.144Z,72.80
2017-05-08T06:57:50.074Z,73.00
2017-05-08T07:00:20.740Z,73.20
2017-05-08T07:02:51.446Z,74.20
2017-05-08T07:05:22.414Z,74.20
2017-05-08T07:07:53.094Z,74.20
2017-05-08T07:10:23.382Z,75.10
2017-05-08T07:12:54.171Z,74.90
2017-05-08T07:15:25.110Z,76.30
2017-05-08T07:17:55.723Z,75.60
2017-05-08T07:20:26.423Z,75.80
2017-05-08T07:22:58.318Z,77.70
2017-05-08T07:25:29.239Z,77.20
2017-05-08T07:28:00.058Z,78.10
2017-05-08T07:30:30.977Z,78.30
2017-05-08T07:33:01.672Z,77.90
2017-05-08T07:35:33.105Z,79.00
2017-05-08T07:38:03.165Z,78.30
2017-05-08T07:40:33.958Z,79.40
2017-05-08T07:43:04.953Z,79.30
2017-05-08T07:45:35.855Z,79.80
2017-05-08T07:48:06.833Z,79.90
2017-05-08T07:50:37.718Z,79.60
2017-05-08T07:53:08.574Z,79.70
2017-05-08T07:55:39.319Z,80.20
2017-05-08T07:58:09.847Z,80.10
2017-05-08T08:00:41.606Z,79.80
2017-05-08T08:03:12.077Z,80.60
2017-05-08T08:05:42.997Z,80.30
2017-05-08T08:08:13.566Z,81.00
2017-05-08T08:10:44.350Z,81.20
2017-05-08T08:13:14.838Z,83.20
2017-05-08T08:15:45.454Z,83.50
2017-05-08T08:18:17.283Z,82.00
2017-05-08T08:20:47.981Z,82.10
2017-05-08T08:23:20.253Z,82.80
2017-05-08T08:25:51.241Z,84.70
2017-05-08T08:28:22.826Z,84.80
2017-05-08T08:30:53.715Z,87.50
2017-05-08T08:33:24.924Z,86.70
2017-05-08T08:35:55.634Z,86.00
2017-05-08T08:38:26.591Z,87.80
2017-05-08T08:40:57.347Z,90.30
2017-05-08T08:43:27.932Z,91.80
2017-05-08T08:45:58.581Z,91.70
2017-05-08T08:48:29.200Z,91.40
2017-05-08T08:50:59.924Z,91.20
2017-05-08T08:53:30.503Z,91.20
2017-05-08T08:56:00.957Z,91.90
2017-05-08T08:58:31.895Z,92.00
2017-05-08T09:01:02.733Z,93.50
2017-05-08T09:03:33.289Z,93.60
2017-05-08T09:06:03.996Z,95.10
2017-05-08T09:08:34.765Z,96.10
2017-05-08T09:11:05.465Z,95.50
2017-05-08T09:13:36.169Z,95.80
2017-05-08T09:16:06.893Z,95.20
2017-05-08T09:18:37.669Z,94.90
2017-05-08T09:21:08.192Z,95.20
2017-05-08T09:23:40.089Z,94.50
2017-05-08T09:26:10.823Z,94.70
2017-05-08T09:28:41.849Z,93.90
2017-05-08T09:31:13.709Z,93.80
2017-05-08T09:33:44.221Z,93.60
2017-05-08T09:36:14.924Z,93.50
2017-05-08T09:38:45.444Z,93.10
2017-05-08T09:41:16.447Z,93.20
2017-05-08T09:43:47.176Z,93.80
2017-05-08T09:46:18.875Z,94.10
2017-05-08T09:48:49.651Z,93.90
2017-05-08T09:51:20.538Z,93.80
2017-05-08T09:53:51.267Z,94.00
2017-05-08T09:56:21.917Z,94.70
2017-05-08T09:58:52.621Z,95.50
2017-05-08T10:01:23.446Z,95.30
2017-05-08T10:03:54.232Z,94.40
2017-05-08T10:06:25.043Z,94.10
2017-05-08T10:08:55.793Z,93.70
2017-05-08T10:11:26.743Z,94.00
2017-05-08T10:13:57.254Z,95.00
2017-05-08T10:16:28.033Z,96.60
2017-05-08T10:18:58.678Z,97.30
2017-05-08T10:21:29.238Z,98.30
2017-05-08T10:24:01.150Z,97.60
2017-05-08T10:26:31.955Z,97.70
2017-05-08T10:29:02.652Z,97.70
2017-05-08T10:31:33.617Z,97.70
2017-05-08T10:34:04.551Z,96.80
2017-05-08T10:36:35.120Z,97.60
2017-05-08T10:39:05.815Z,98.50
2017-05-08T10:41:36.822Z,98.50
2017-05-08T10:44:07.511Z,98.50
2017-05-08T10:46:38.220Z,99.00
2017-05-08T10:49:08.859Z,99.90
2017-05-08T10:51:39.639Z,99.90
2017-05-08T10:54:10.693Z,99.90
2017-05-08T10:56:41.238Z,99.90
2017-05-08T10:59:11.970Z,99.50
2017-05-08T11:01:43.735Z,99.20
2017-05-08T11:04:15.218Z,99.20
2017-05-08T11:06:45.857Z,99.90
2017-05-08T11:09:16.760Z,99.90
2017-05-08T11:11:47.311Z,99.90
2017-05-08T11:14:18.322Z,99.90
2017-05-08T11:16:49.261Z,99.90
2017-05-08T11:19:20.027Z,99.90
2017-05-08T11:21:50.977Z,99.90
2017-05-08T11:24:22.940Z,99.90
2017-05-08T11:26:53.664Z,99.90
2017-05-08T11:29:24.221Z,99.90
2017-05-08T11:31:54.995Z,99.90
2017-05-08T11:34:25.958Z,99.90
2017-05-08T11:36:56.812Z,99.90
2017-05-08T11:39:27.753Z,99.90
2017-05-08T11:41:58.411Z,99.90
2017-05-08T11:44:29.104Z,99.90
2017-05-08T11:46:59.784Z,99.90
2017-05-08T11:49:30.758Z,99.90
2017-05-08T11:52:01.690Z,99.90
2017-05-08T11:54:33.184Z,99.90
2017-05-08T11:57:03.653Z,99.90
2017-05-08T11:59:34.315Z,99.90
2017-05-08T12:02:05.439Z,99.90
2017-05-08T12:04:36.085Z,99.90
2017-05-08T12:07:06.730Z,99.90
2017-05-08T12:09:37.351Z,99.90
2017-05-08T12:12:08.219Z,99.90
2017-05-08T12:14:38.566Z,99.90
2017-05-08T12:17:09.400Z,99.90
2017-05-08T12:19:40.263Z,99.90
2017-05-08T12:22:11.121Z,99.90
2017-05-08T12:24:43.434Z,99.90
2017-05-08T12:27:14.325Z,99.90
2017-05-08T12:29:45.118Z,99.90
2017-05-08T12:32:15.875Z,99.90
2017-05-08T12:34:46.741Z,99.90
2017-05-08T12:37:17.616Z,99.90
2017-05-08T12:39:47.912Z,99.90
2017-05-08T12:42:18.579Z,99.90
2017-05-08T12:44:49.486Z,99.90
2017-05-08T12:47:20.280Z,99.90
2017-05-08T12:49:51.182Z,99.90
2017-05-08T12:52:22.130Z,99.90
2017-05-08T12:54:52.747Z,99.90
2017-05-08T12:57:23.597Z,99.90
2017-05-08T12:59:54.116Z,99.90
2017-05-08T13:02:25.066Z,99.90
2017-05-08T13:04:55.696Z,99.90
2017-05-08T13:07:26.503Z,99.90
2017-05-08T13:09:57.263Z,99.90
2017-05-08T13:12:28.354Z,99.90
2017-05-08T13:14:59.233Z,99.90
2017-05-08T13:17:29.889Z,99.90
2017-05-08T13:20:07.835Z,99.90
2017-05-08T13:22:38.193Z,99.90
2017-05-08T13:25:10.074Z,99.90
2017-05-08T13:27:40.776Z,99.90
2017-05-08T13:30:11.438Z,99.90
2017-05-08T13:32:42.445Z,99.90
2017-05-08T13:35:12.961Z,99.90
2017-05-08T13:37:43.809Z,99.90
2017-05-08T13:40:14.454Z,99.90
2017-05-08T13:42:45.175Z,99.90
2017-05-08T13:45:15.999Z,99.90
2017-05-08T13:47:46.579Z,99.90
2017-05-08T13:50:17.391Z,99.90
2017-05-08T13:52:48.437Z,99.90
2017-05-08T13:55:19.339Z,99.90
2017-05-08T13:57:50.254Z,99.90
2017-05-08T14:00:20.821Z,99.90
2017-05-08T14:02:51.609Z,97.20
2017-05-08T14:05:22.444Z,95.40
2017-05-08T14:07:53.133Z,94.10
2017-05-08T14:10:23.994Z,90.00
2017-05-08T14:12:54.679Z,84.90
2017-05-08T14:15:25.460Z,80.30
2017-05-08T14:17:56.368Z,76.50
2017-05-08T14:20:27.472Z,77.10
2017-05-08T14:22:58.187Z,76.80
2017-05-08T14:25:29.641Z,76.70
2017-05-08T14:28:00.464Z,79.20
2017-05-08T14:30:31.278Z,74.40
2017-05-08T14:33:02.025Z,76.80
2017-05-08T14:35:32.762Z,77.10
2017-05-08T14:38:03.438Z,79.10
2017-05-08T14:40:34.325Z,77.10
2017-05-08T14:43:05.450Z,74.00
2017-05-08T14:45:36.372Z,74.80
2017-05-08T14:48:07.202Z,71.90
2017-05-08T14:50:37.878Z,73.50
2017-05-08T14:53:08.933Z,71.10
2017-05-08T14:55:39.265Z,67.60
2017-05-08T14:58:09.847Z,65.00
2017-05-08T15:00:39.903Z,64.60
2017-05-08T15:03:10.040Z,63.60
2017-05-08T15:05:39.958Z,66.70
2017-05-08T15:08:10.883Z,60.70
2017-05-08T15:10:41.556Z,59.40
2017-05-08T15:13:12.215Z,58.00
2017-05-08T15:15:42.831Z,57.00
2017-05-08T15:18:13.281Z,56.80
2017-05-08T15:20:44.938Z,51.10
2017-05-08T15:23:15.943Z,48.20
2017-05-08T15:25:47.403Z,44.50
2017-05-08T15:28:18.090Z,43.40
2017-05-08T15:30:48.856Z,39.20
2017-05-08T15:33:19.607Z,34.10
2017-05-08T15:35:50.415Z,36.20
2017-05-08T15:38:21.205Z,27.90
2017-05-08T15:40:52.932Z,26.90
2017-05-08T15:43:23.880Z,27.90
2017-05-08T15:45:54.311Z,29.20
2017-05-08T15:48:25.118Z,31.40
2017-05-08T15:50:55.963Z,28.80
2017-05-08T15:53:26.660Z,28.40
2017-05-08T15:55:57.548Z,24.70
2017-05-08T15:58:28.569Z,25.80
2017-05-08T16:00:59.100Z,25.70
2017-05-08T16:03:29.679Z,26.90
2017-05-08T16:06:00.527Z,22.20
2017-05-08T16:08:31.251Z,25.90
2017-05-08T16:11:02.850Z,24.90
2017-05-08T16:13:33.640Z,28.70
2017-05-08T16:16:04.427Z,26.30
2017-05-08T16:18:35.174Z,28.00
2017-05-08T16:21:05.987Z,28.30
2017-05-08T16:23:37.034Z,32.70
2017-05-08T16:26:08.522Z,35.40
2017-05-08T16:28:40.174Z,35.50
2017-05-08T16:31:10.867Z,31.40
2017-05-08T16:33:41.748Z,28.70
2017-05-08T16:36:12.649Z,24.20
2017-05-08T16:38:43.276Z,26.50
2017-05-08T16:41:13.940Z,23.40
2017-05-08T16:43:44.697Z,20.00
2017-05-08T16:46:15.648Z,22.50
2017-05-08T16:48:46.480Z,21.00
2017-05-08T16:51:17.231Z,17.80
2017-05-08T16:53:48.141Z,18.40
2017-05-08T16:56:18.923Z,19.70
2017-05-08T16:58:49.623Z,20.60
2017-05-08T17:01:20.512Z,19.10
2017-05-08T17:03:51.206Z,20.20
2017-05-08T17:06:21.917Z,18.70
2017-05-08T17:08:52.909Z,19.70
2017-05-08T17:11:23.544Z,20.20
2017-05-08T17:13:54.471Z,16.50
2017-05-08T17:16:25.049Z,19.50
2017-05-08T17:18:56.809Z,17.30
2017-05-08T17:21:28.158Z,18.70
2017-05-08T17:23:59.096Z,17.10
2017-05-08T17:26:31.615Z,19.10
2017-05-08T17:29:02.144Z,17.20
2017-05-08T17:31:32.832Z,16.40
2017-05-08T17:34:03.540Z,18.30
2017-05-08T17:36:34.234Z,21.60
2017-05-08T17:39:05.327Z,22.00
2017-05-08T17:41:36.053Z,17.80
2017-05-08T17:44:06.797Z,17.20
2017-05-08T17:46:37.427Z,16.80
2017-05-08T17:49:08.210Z,20.10
2017-05-08T17:51:38.902Z,20.20
2017-05-08T17:54:09.690Z,18.90
2017-05-08T17:56:40.566Z,19.70
2017-05-08T17:59:11.411Z,19.40
2017-05-08T18:01:42.552Z,20.60
2017-05-08T18:04:13.365Z,20.20
2017-05-08T18:06:43.921Z,21.10
2017-05-08T18:09:15.631Z,21.00
2017-05-08T18:11:46.483Z,20.70
2017-05-08T18:14:17.156Z,21.80
2017-05-08T18:16:48.534Z,19.90
2017-05-08T18:19:19.236Z,20.00
2017-05-08T18:21:49.908Z,21.50
2017-05-08T18:24:20.533Z,17.80
2017-05-08T18:26:52.492Z,16.50
2017-05-08T18:29:23.292Z,18.20
2017-05-08T18:31:54.248Z,18.20
2017-05-08T18:34:25.388Z,18.00
2017-05-08T18:36:56.240Z,16.80
2017-05-08T18:39:27.330Z,16.20
2017-05-08T18:41:58.047Z,15.30
2017-05-08T18:44:28.789Z,15.70
2017-05-08T18:46:59.823Z,16.70
2017-05-08T18:49:30.536Z,15.40
2017-05-08T18:52:01.135Z,15.80
2017-05-08T18:54:32.867Z,15.50
2017-05-08T18:57:03.662Z,16.10
2017-05-08T18:59:34.492Z,15.80
2017-05-08T19:02:05.502Z,18.60
2017-05-08T19:04:36.284Z,18.70
2017-05-08T19:07:06.856Z,18.40
2017-05-08T19:09:37.505Z,14.70
2017-05-08T19:12:08.401Z,18.70
2017-05-08T19:14:39.359Z,17.20
2017-05-08T19:17:10.089Z,14.60
2017-05-08T19:19:41.581Z,15.00
2017-05-08T19:22:12.353Z,15.20
2017-05-08T19:24:43.261Z,14.00
2017-05-08T19:27:16.035Z,12.50
2017-05-08T19:29:46.790Z,14.90
2017-05-08T19:32:17.411Z,15.30
2017-05-08T19:34:48.229Z,14.70
2017-05-08T19:37:19.065Z,14.50
2017-05-08T19:39:50.163Z,16.20
2017-05-08T19:42:20.750Z,17.30
2017-05-08T19:44:51.687Z,16.00
2017-05-08T19:47:22.386Z,19.00
2017-05-08T19:49:53.129Z,16.70
2017-05-08T19:52:23.675Z,18.40
2017-05-08T19:54:55.121Z,17.60
2017-05-08T19:57:25.791Z,17.00
2017-05-08T19:59:56.770Z,19.60
2017-05-08T20:02:27.593Z,17.80
2017-05-08T20:04:58.298Z,19.70
2017-05-08T20:07:28.904Z,22.30
2017-05-08T20:09:59.784Z,22.40
2017-05-08T20:12:30.765Z,21.30
2017-05-08T20:15:01.611Z,25.40
2017-05-08T20:17:32.270Z,22.40
2017-05-08T20:20:02.333Z,21.70
2017-05-08T20:22:32.440Z,22.10
2017-05-08T20:25:02.598Z,23.70
2017-05-08T20:27:34.484Z,22.00
2017-05-08T20:30:05.174Z,24.00
2017-05-08T20:32:35.471Z,25.50
2017-05-08T20:35:06.480Z,24.90
2017-05-08T20:37:37.145Z,25.70
2017-05-08T20:40:07.925Z,24.40
2017-05-08T20:42:38.564Z,26.20
2017-05-08T20:45:10.202Z,26.40
2017-05-08T20:47:40.453Z,25.00
2017-05-08T20:50:11.533Z,26.30
2017-05-08T20:52:42.081Z,24.10
2017-05-08T20:55:13.030Z,23.60
2017-05-08T20:57:43.764Z,22.70
2017-05-08T21:00:14.702Z,23.80
2017-05-08T21:02:45.259Z,22.50
2017-05-08T21:05:15.975Z,24.20
2017-05-08T21:07:46.837Z,24.70
2017-05-08T21:10:17.589Z,22.90
2017-05-08T21:12:48.143Z,23.20
2017-05-08T21:15:19.112Z,24.80
2017-05-08T21:17:50.072Z,23.90
2017-05-08T21:20:21.034Z,26.50
2017-05-08T21:22:51.873Z,24.70
2017-05-08T21:25:22.802Z,24.80
2017-05-08T21:27:54.555Z,20.80
2017-05-08T21:30:25.475Z,23.30
2017-05-08T21:32:56.352Z,24.30
2017-05-08T21:35:27.466Z,25.40
2017-05-08T21:37:58.428Z,22.10
2017-05-08T21:40:29.094Z,23.20
2017-05-08T21:42:59.818Z,22.00
2017-05-08T21:45:30.661Z,22.80
2017-05-08T21:48:01.356Z,24.20
2017-05-08T21:50:32.554Z,24.20
2017-05-08T21:53:03.390Z,21.60
2017-05-08T21:55:34.416Z,23.00
2017-05-08T21:58:05.259Z,25.20
2017-05-08T22:00:35.999Z,22.10
2017-05-08T22:03:06.846Z,23.90
2017-05-08T22:05:37.810Z,25.20
2017-05-08T22:08:08.449Z,21.60
2017-05-08T22:10:39.413Z,21.80
2017-05-08T22:13:10.115Z,26.10
2017-05-08T22:15:40.834Z,24.80
2017-05-08T22:18:11.308Z,27.10
2017-05-08T22:20:42.005Z,25.90
2017-05-08T22:23:12.698Z,25.00
2017-05-08T22:25:43.238Z,27.60
2017-05-08T22:28:15.245Z,25.90
2017-05-08T22:30:45.929Z,24.40
2017-05-08T22:33:16.801Z,23.40
2017-05-08T22:35:47.823Z,25.00
2017-05-08T22:38:18.635Z,25.40
2017-05-08T22:40:49.198Z,25.00
2017-05-08T22:43:19.748Z,26.70
2017-05-08T22:45:50.403Z,25.10
2017-05-08T22:48:21.240Z,26.90
2017-05-08T22:50:52.169Z,27.50
2017-05-08T22:53:23.085Z,25.30
2017-05-08T22:55:53.710Z,24.70
2017-05-08T22:58:24.711Z,25.30
2017-05-08T23:00:55.475Z,26.50
2017-05-08T23:03:26.040Z,24.60
2017-05-08T23:05:56.709Z,25.40
2017-05-08T23:08:27.840Z,25.80
2017-05-08T23:10:58.360Z,27.20
2017-05-08T23:13:29.077Z,24.70
2017-05-08T23:16:00.501Z,25.80
2017-05-08T23:18:31.285Z,25.50
2017-05-08T23:21:02.084Z,26.10
2017-05-08T23:23:32.913Z,27.60
2017-05-08T23:26:03.581Z,26.20
2017-05-08T23:28:35.282Z,25.40
2017-05-08T23:31:06.093Z,25.70
2017-05-08T23:33:36.959Z,24.40
2017-05-08T23:36:07.784Z,25.20
2017-05-08T23:38:38.222Z,25.80
2017-05-08T23:41:09.143Z,24.60
2017-05-08T23:43:39.944Z,23.50
2017-05-08T23:46:10.802Z,23.40
2017-05-08T23:48:41.210Z,25.70
2017-05-08T23:51:12.155Z,24.00
2017-05-08T23:53:42.751Z,24.50
2017-05-08T23:56:14.489Z,22.70
2017-05-08T23:58:45.212Z,22.60
